Time;durP1;ratioP1;P1;durP2;ratioP2;P2;SDS_P1;SDS_P2;PMS_P1;PMS_P2;Temp;Humidity;BMP_temperature;BMP_pressure;BME280_temperature;BME280_humidity;BME280_pressure;Samples;Min_cycle;Max_cycle;Signal;HPM_P1;HPM_P2
2023/12/31 00:02:03;;;;;;;;;;;;;;;;;;5155330;27;20459;-40
2023/12/31 00:04:28;;;;;;;;;;;;;;;;;;5155280;27;19923;-41
2023/12/31 00:06:54;;;;;;;;;;;;;;;;;;5155304;27;19934;-42
2023/12/31 00:09:19;;;;;;;;;;;;;;;;;;5155164;27;19930;-40
2023/12/31 00:11:45;;;;;;;;;;;;;;;;;;5155501;27;20014;-40
2023/12/31 00:14:10;;;;;;;;;;;;;;;;;;5155453;27;20328;-42
2023/12/31 00:16:35;;;;;;;;;;;;;;;;;;5155202;27;20297;-43
2023/12/31 00:19:01;;;;;;;;;;;;;;;;;;5155374;27;20005;-40
2023/12/31 00:21:26;;;;;;;;;;;;;;;;;;5154976;27;19923;-40
2023/12/31 00:23:52;;;;;;;;;;;;;;;;;;5155084;27;20403;-40
2023/12/31 00:26:17;;;;;;;;;;;;;;;;;;5153351;27;20389;-40
2023/12/31 00:28:43;;;;;;;;;;;;;;;;;;5155004;27;19974;-40
2023/12/31 00:31:08;;;;;;;;;;;;;;;;;;5154759;27;19955;-40
2023/12/31 00:33:34;;;;;;;;;;;;;;;;;;5154550;27;20017;-41
2023/12/31 00:36:00;;;;;;;;;;;;;;;;;;5154952;27;19926;-40
2023/12/31 00:38:26;;;;;;;;;;;;;;;;;;5154983;27;19971;-40
2023/12/31 00:40:51;;;;;;;;;;;;;;;;;;5154625;27;19966;-40
2023/12/31 00:43:17;;;;;;;;;;;;;;;;;;5155059;27;19954;-42
2023/12/31 00:45:42;;;;;;;;;;;;;;;;;;5154484;27;19923;-40
2023/12/31 00:48:08;;;;;;;;;;;;;;;;;;5154950;27;20019;-40
2023/12/31 00:50:34;;;;;;;;;;;;;;;;;;5154856;27;19923;-41
2023/12/31 00:53:00;;;;;;;;;;;;;;;;;;5154982;27;19924;-40
2023/12/31 00:55:25;;;;;;;;;;;;;;;;;;5154488;27;20018;-41
2023/12/31 00:57:51;;;;;;;;;;;;;;;;;;5154675;27;20309;-42
2023/12/31 01:00:16;;;;;;;;;;;;;;;;;;5154531;27;20383;-40
2023/12/31 01:02:42;;;;;;;;;;;;;;;;;;5154537;27;19926;-40
2023/12/31 01:05:07;;;;;;;;;;;;;;;;;;5154595;27;19923;-40
2023/12/31 01:07:33;;;;;;;;;;;;;;;;;;5154422;27;20002;-41
2023/12/31 01:09:58;;;;;;;;;;;;;;;;;;5154330;27;19927;-40
2023/12/31 01:12:23;;;;;;;;;;;;;;;;;;5154505;27;20021;-40
2023/12/31 01:14:49;;;;;;;;;;;;;;;;;;5154277;27;19958;-40
2023/12/31 01:17:14;;;;;;;;;;;;;;;;;;5154464;27;19923;-42
2023/12/31 01:19:40;;;;;;;;;;;;;;;;;;5154558;27;20283;-41
2023/12/31 01:22:06;;;;;;;;;;;;;;;;;;5153884;27;19923;-40
2023/12/31 01:24:31;;;;;;;;;;;;;;;;;;5154570;27;19962;-40
2023/12/31 01:26:56;;;;;;;;;;;;;;;;;;5153730;27;19923;-41
2023/12/31 01:29:23;;;;;;;;;;;;;;;;;;5153973;27;19981;-41
2023/12/31 01:31:49;;;;;;;;;;;;;;;;;;5154195;27;19923;-40
2023/12/31 01:34:14;;;;;;;;;;;;;;;;;;5154101;27;20342;-41
2023/12/31 01:36:40;;;;;;;;;;;;;;;;;;5154090;27;19930;-41
2023/12/31 01:39:07;;;;;;;;;;;;;;;;;;5153994;27;20010;-39
2023/12/31 01:41:32;;;;;;;;;;;;;;;;;;5153929;27;19930;-40
2023/12/31 01:43:58;;;;;;;;;;;;;;;;;;5153760;27;20010;-44
2023/12/31 01:46:23;;;;;;;;;;;;;;;;;;5153761;27;19973;-41
2023/12/31 01:48:49;;;;;;;;;;;;;;;;;;5154027;27;20102;-41
2023/12/31 01:51:14;;;;;;;;;;;;;;;;;;5154056;27;20285;-41
2023/12/31 01:53:39;;;;;;;;;;;;;;;;;;5154041;27;20009;-41
2023/12/31 01:56:05;;;;;;;;;;;;;;;;;;5152799;27;20406;-42
2023/12/31 01:58:30;;;;;;;;;;;;;;;;;;5153181;27;20348;-41
2023/12/31 02:00:56;;;;;;;;;;;;;;;;;;5152917;27;19923;-42
2023/12/31 02:03:21;;;;;;;;;;;;;;;;;;5152948;27;20017;-41
2023/12/31 02:05:47;;;;;;;;;;;;;;;;;;5153139;27;20363;-40
2023/12/31 02:08:12;;;;;;;;;;;;;;;;;;5153023;27;20345;-41
2023/12/31 02:10:38;;;;;;;;;;;;;;;;;;5153024;27;20015;-40
2023/12/31 02:13:03;;;;;;;;;;;;;;;;;;5153132;27;20014;-41
2023/12/31 02:15:30;;;;;;;;;;;;;;;;;;5153068;27;20104;-41
2023/12/31 02:17:55;;;;;;;;;;;;;;;;;;5153033;27;19927;-40
2023/12/31 02:20:21;;;;;;;;;;;;;;;;;;5153303;27;20371;-39
2023/12/31 02:22:46;;;;;;;;;;;;;;;;;;5153479;27;20318;-40
2023/12/31 02:25:11;;;;;;;;;;;;;;;;;;5153347;27;19930;-41
2023/12/31 02:27:37;;;;;;;;;;;;;;;;;;5153070;27;20010;-41
2023/12/31 02:30:02;;;;;;;;;;;;;;;;;;5153245;27;19923;-41
2023/12/31 02:32:28;;;;;;;;;;;;;;;;;;5153416;27;19971;-42
2023/12/31 02:34:53;;;;;;;;;;;;;;;;;;5153319;27;19930;-41
2023/12/31 02:37:19;;;;;;;;;;;;;;;;;;5153430;27;19984;-42
2023/12/31 02:39:44;;;;;;;;;;;;;;;;;;5152791;27;20010;-42
2023/12/31 02:42:10;;;;;;;;;;;;;;;;;;5152933;27;20393;-41
2023/12/31 02:44:35;;;;;;;;;;;;;;;;;;5153238;27;20450;-43
2023/12/31 02:47:01;;;;;;;;;;;;;;;;;;5153012;27;20386;-41
2023/12/31 02:49:26;;;;;;;;;;;;;;;;;;5153246;27;20382;-45
2023/12/31 02:51:52;;;;;;;;;;;;;;;;;;5153246;27;19927;-40
2023/12/31 02:54:17;;;;;;;;;;;;;;;;;;5153205;27;19930;-42
2023/12/31 02:56:43;;;;;;;;;;;;;;;;;;5155906;27;19927;-40
2023/12/31 02:59:08;;;;;;;;;;;;;;;;;;5156368;27;19923;-40
2023/12/31 03:01:33;;;;;;;;;;;;;;;;;;5156620;27;20347;-42
2023/12/31 03:03:59;;;;;;;;;;;;;;;;;;5156419;27;19931;-40
2023/12/31 03:06:24;;;;;;;;;;;;;;;;;;5156415;27;20354;-42
2023/12/31 03:08:50;;;;;;;;;;;;;;;;;;5156467;27;19930;-40
2023/12/31 03:11:15;;;;;;;;;;;;;;;;;;5156273;27;20001;-42
2023/12/31 03:13:41;;;;;;;;;;;;;;;;;;5156487;27;20008;-41
2023/12/31 03:16:06;;;;;;;;;;;;;;;;;;5155903;27;20288;-45
2023/12/31 03:18:31;;;;;;;;;;;;;;;;;;5156566;27;19923;-41
2023/12/31 03:20:57;;;;;;;;;;;;;;;;;;5156240;27;20338;-40
2023/12/31 03:23:22;;;;;;;;;;;;;;;;;;5155832;27;19923;-43
2023/12/31 03:25:48;;;;;;;;;;;;;;;;;;5155330;27;19962;-44
2023/12/31 03:28:13;;;;;;;;;;;;;;;;;;5155545;27;20015;-43
2023/12/31 03:30:39;;;;;;;;;;;;;;;;;;5155256;27;19962;-42
2023/12/31 03:33:04;;;;;;;;;;;;;;;;;;5155865;27;20068;-42
2023/12/31 03:35:30;;;;;;;;;;;;;;;;;;5155656;27;20357;-40
2023/12/31 03:37:56;;;;;;;;;;;;;;;;;;5155174;27;20383;-44
2023/12/31 03:40:23;;;;;;;;;;;;;;;;;;5155733;27;20397;-41
2023/12/31 03:42:49;;;;;;;;;;;;;;;;;;5155844;27;19930;-42
2023/12/31 03:45:14;;;;;;;;;;;;;;;;;;5155666;27;20014;-41
2023/12/31 03:47:40;;;;;;;;;;;;;;;;;;5155723;27;19923;-43
2023/12/31 03:50:05;;;;;;;;;;;;;;;;;;5155810;27;20278;-44
2023/12/31 03:52:31;;;;;;;;;;;;;;;;;;5155847;27;20326;-41
2023/12/31 03:54:56;;;;;;;;;;;;;;;;;;5155935;27;19961;-44
2023/12/31 03:57:22;;;;;;;;;;;;;;;;;;5155594;27;19923;-42
2023/12/31 03:59:47;;;;;;;;;;;;;;;;;;5155422;27;19923;-41
2023/12/31 04:02:13;;;;;;;;;;;;;;;;;;5155138;27;20386;-42
2023/12/31 04:04:38;;;;;;;;;;;;;;;;;;5155475;27;20671;-42
2023/12/31 04:07:05;;;;;;;;;;;;;;;;;;5154961;27;20287;-42
2023/12/31 04:09:30;;;;;;;;;;;;;;;;;;5154637;27;20268;-42
2023/12/31 04:11:55;;;;;;;;;;;;;;;;;;5154544;27;20017;-42
2023/12/31 04:14:21;;;;;;;;;;;;;;;;;;5154709;27;20428;-41
2023/12/31 04:16:46;;;;;;;;;;;;;;;;;;5154782;27;20385;-42
2023/12/31 04:19:14;;;;;;;;;;;;;;;;;;5155221;27;19954;-40
2023/12/31 04:21:39;;;;;;;;;;;;;;;;;;5154749;27;19946;-40
2023/12/31 04:24:05;;;;;;;;;;;;;;;;;;5155213;27;20359;-42
2023/12/31 04:26:30;;;;;;;;;;;;;;;;;;5155068;27;20272;-42
2023/12/31 04:28:56;;;;;;;;;;;;;;;;;;5154897;27;19963;-40
2023/12/31 04:31:21;;;;;;;;;;;;;;;;;;5154846;27;19972;-41
2023/12/31 04:33:47;;;;;;;;;;;;;;;;;;5155175;27;19923;-42
2023/12/31 04:36:13;;;;;;;;;;;;;;;;;;5154905;27;19926;-42
2023/12/31 04:38:38;;;;;;;;;;;;;;;;;;5154932;27;19930;-41
2023/12/31 04:41:05;;;;;;;;;;;;;;;;;;5154045;27;19981;-41
2023/12/31 04:43:31;;;;;;;;;;;;;;;;;;5154931;27;19961;-43
2023/12/31 04:45:56;;;;;;;;;;;;;;;;;;5154198;27;20045;-40
2023/12/31 04:48:22;;;;;;;;;;;;;;;;;;5154390;27;19966;-41
2023/12/31 04:50:47;;;;;;;;;;;;;;;;;;5154368;27;20045;-43
2023/12/31 04:53:15;;;;;;;;;;;;;;;;;;5154401;27;19923;-43
2023/12/31 04:55:41;;;;;;;;;;;;;;;;;;5154442;27;19923;-42
2023/12/31 04:58:06;;;;;;;;;;;;;;;;;;5154405;27;20023;-41
2023/12/31 05:00:31;;;;;;;;;;;;;;;;;;5154871;27;19962;-43
2023/12/31 05:02:57;;;;;;;;;;;;;;;;;;5153787;27;20001;-42
2023/12/31 05:05:22;;;;;;;;;;;;;;;;;;5154811;27;19969;-41
2023/12/31 05:07:48;;;;;;;;;;;;;;;;;;5154304;27;20048;-41
2023/12/31 05:10:13;;;;;;;;;;;;;;;;;;5154264;27;20400;-41
2023/12/31 05:12:39;;;;;;;;;;;;;;;;;;5154514;27;20013;-42
2023/12/31 05:15:04;;;;;;;;;;;;;;;;;;5154093;27;19975;-42
2023/12/31 05:17:30;;;;;;;;;;;;;;;;;;5154099;27;20019;-42
2023/12/31 05:19:55;;;;;;;;;;;;;;;;;;5153824;27;20030;-39
2023/12/31 05:22:21;;;;;;;;;;;;;;;;;;5154118;27;19924;-43
2023/12/31 05:24:46;;;;;;;;;;;;;;;;;;5154146;27;19958;-40
2023/12/31 05:27:12;;;;;;;;;;;;;;;;;;5154183;27;19927;-42
2023/12/31 05:29:38;;;;;;;;;;;;;;;;;;5153157;27;19927;-40
2023/12/31 05:32:03;;;;;;;;;;;;;;;;;;5153798;27;19969;-41
2023/12/31 05:34:29;;;;;;;;;;;;;;;;;;5153293;27;20013;-41
2023/12/31 05:36:54;;;;;;;;;;;;;;;;;;5153786;27;19972;-39
2023/12/31 05:39:20;;;;;;;;;;;;;;;;;;5153253;27;19970;-42
2023/12/31 05:41:45;;;;;;;;;;;;;;;;;;5153786;27;20017;-44
2023/12/31 05:44:12;;;;;;;;;;;;;;;;;;5153475;27;19923;-41
2023/12/31 05:46:37;;;;;;;;;;;;;;;;;;5153172;27;20375;-41
2023/12/31 05:49:03;;;;;;;;;;;;;;;;;;5153498;27;19967;-42
2023/12/31 05:51:28;;;;;;;;;;;;;;;;;;5153462;27;20474;-42
2023/12/31 05:53:54;;;;;;;;;;;;;;;;;;5153858;27;20021;-43
2023/12/31 05:56:19;;;;;;;;;;;;;;;;;;5153995;27;19938;-42
2023/12/31 05:58:46;;;;;;;;;;;;;;;;;;5154030;27;19927;-41
2023/12/31 06:01:12;;;;;;;;;;;;;;;;;;5153939;27;20370;-42
2023/12/31 06:03:38;;;;;;;;;;;;;;;;;;5153581;27;19967;-40
2023/12/31 06:06:03;;;;;;;;;;;;;;;;;;5153582;27;20366;-43
2023/12/31 06:08:29;;;;;;;;;;;;;;;;;;5153522;27;19954;-41
2023/12/31 06:10:54;;;;;;;;;;;;;;;;;;5153426;27;19966;-41
2023/12/31 06:13:20;;;;;;;;;;;;;;;;;;5153450;27;19930;-44
2023/12/31 06:15:46;;;;;;;;;;;;;;;;;;5153059;27;20489;-43
2023/12/31 06:18:11;;;;;;;;;;;;;;;;;;5153607;27;20413;-42
2023/12/31 06:20:36;;;;;;;;;;;;;;;;;;5153584;27;19927;-40
2023/12/31 06:23:02;;;;;;;;;;;;;;;;;;5153450;27;19927;-40
2023/12/31 06:25:28;;;;;;;;;;;;;;;;;;5153361;27;19923;-41
2023/12/31 06:27:56;;;;;;;;;;;;;;;;;;5153476;27;19977;-40
2023/12/31 06:30:21;;;;;;;;;;;;;;;;;;5154140;27;19924;-40
2023/12/31 06:32:47;;;;;;;;;;;;;;;;;;5157180;27;19923;-44
2023/12/31 06:35:12;;;;;;;;;;;;;;;;;;5156706;27;19967;-43
2023/12/31 06:37:38;;;;;;;;;;;;;;;;;;5157132;27;20358;-41
2023/12/31 06:40:04;;;;;;;;;;;;;;;;;;5156575;27;19927;-41
2023/12/31 06:42:29;;;;;;;;;;;;;;;;;;5156943;27;19930;-42
2023/12/31 06:44:55;;;;;;;;;;;;;;;;;;5156427;27;19966;-43
2023/12/31 06:47:21;;;;;;;;;;;;;;;;;;5156803;27;20358;-40
2023/12/31 06:49:46;;;;;;;;;;;;;;;;;;5156571;27;20359;-43
2023/12/31 06:52:13;;;;;;;;;;;;;;;;;;5156672;27;19923;-40
2023/12/31 06:54:39;;;;;;;;;;;;;;;;;;5156918;27;20362;-43
2023/12/31 06:57:04;;;;;;;;;;;;;;;;;;5156889;27;19981;-40
2023/12/31 06:59:32;;;;;;;;;;;;;;;;;;5156732;27;19923;-41
2023/12/31 07:01:58;;;;;;;;;;;;;;;;;;5156648;27;20421;-43
2023/12/31 07:04:24;;;;;;;;;;;;;;;;;;5156637;27;20394;-41
2023/12/31 07:06:49;;;;;;;;;;;;;;;;;;5156205;27;20247;-40
2023/12/31 07:09:15;;;;;;;;;;;;;;;;;;5156029;27;19966;-42
2023/12/31 07:11:40;;;;;;;;;;;;;;;;;;5156337;27;19960;-44
2023/12/31 07:14:06;;;;;;;;;;;;;;;;;;5156312;27;19952;-42
2023/12/31 07:16:31;;;;;;;;;;;;;;;;;;5156090;27;19927;-41
2023/12/31 07:18:57;;;;;;;;;;;;;;;;;;5156395;27;20314;-40
2023/12/31 07:21:22;;;;;;;;;;;;;;;;;;5156425;27;19970;-41
2023/12/31 07:23:48;;;;;;;;;;;;;;;;;;5156394;27;20017;-40
2023/12/31 07:26:13;;;;;;;;;;;;;;;;;;5156015;27;20013;-42
2023/12/31 07:28:39;;;;;;;;;;;;;;;;;;5156169;27;19969;-40
2023/12/31 07:31:04;;;;;;;;;;;;;;;;;;5156226;27;20006;-41
2023/12/31 07:33:29;;;;;;;;;;;;;;;;;;5155597;27;20018;-40
2023/12/31 07:35:55;;;;;;;;;;;;;;;;;;5156189;27;20018;-39
2023/12/31 07:38:21;;;;;;;;;;;;;;;;;;5155636;27;20004;-39
2023/12/31 07:40:46;;;;;;;;;;;;;;;;;;5155290;27;20021;-40
2023/12/31 07:43:11;;;;;;;;;;;;;;;;;;5156020;27;20013;-42
2023/12/31 07:45:37;;;;;;;;;;;;;;;;;;5155384;27;19966;-41
2023/12/31 07:48:05;;;;;;;;;;;;;;;;;;5155521;27;19970;-42
2023/12/31 07:50:30;;;;;;;;;;;;;;;;;;5155694;27;19927;-44
2023/12/31 07:52:56;;;;;;;;;;;;;;;;;;5155698;27;19959;-40
2023/12/31 07:55:21;;;;;;;;;;;;;;;;;;5155819;27;20398;-40
2023/12/31 07:57:47;;;;;;;;;;;;;;;;;;5155905;27;19972;-39
2023/12/31 08:00:12;;;;;;;;;;;;;;;;;;5155695;27;20010;-40
2023/12/31 08:02:38;;;;;;;;;;;;;;;;;;5155801;27;19923;-42
2023/12/31 08:05:03;;;;;;;;;;;;;;;;;;5155726;27;20005;-40
2023/12/31 08:07:29;;;;;;;;;;;;;;;;;;5155354;27;19995;-43
2023/12/31 08:09:55;;;;;;;;;;;;;;;;;;5155160;27;19923;-40
2023/12/31 08:12:20;;;;;;;;;;;;;;;;;;5155503;27;19966;-41
2023/12/31 08:14:46;;;;;;;;;;;;;;;;;;5154841;27;20022;-40
2023/12/31 08:17:11;;;;;;;;;;;;;;;;;;5155377;27;20418;-41
2023/12/31 08:19:37;;;;;;;;;;;;;;;;;;5155491;27;19946;-42
2023/12/31 08:22:03;;;;;;;;;;;;;;;;;;5155431;27;19923;-42
2023/12/31 08:24:29;;;;;;;;;;;;;;;;;;5155328;27;19923;-43
2023/12/31 08:26:54;;;;;;;;;;;;;;;;;;5155361;27;19927;-40
2023/12/31 08:29:19;;;;;;;;;;;;;;;;;;5155144;27;20059;-40
2023/12/31 08:31:45;;;;;;;;;;;;;;;;;;5155213;27;19975;-41
2023/12/31 08:34:10;;;;;;;;;;;;;;;;;;5154748;27;19974;-40
2023/12/31 08:36:37;;;;;;;;;;;;;;;;;;5155114;27;20014;-43
2023/12/31 08:39:02;;;;;;;;;;;;;;;;;;5154246;27;19927;-43
2023/12/31 08:41:28;;;;;;;;;;;;;;;;;;5154900;27;19923;-42
2023/12/31 08:43:53;;;;;;;;;;;;;;;;;;5154982;27;20409;-41
2023/12/31 08:46:19;;;;;;;;;;;;;;;;;;5154383;27;20403;-43
2023/12/31 08:48:44;;;;;;;;;;;;;;;;;;5154955;27;19984;-41
2023/12/31 08:51:10;;;;;;;;;;;;;;;;;;5154436;27;19923;-44
2023/12/31 08:53:37;;;;;;;;;;;;;;;;;;5153853;27;20354;-39
2023/12/31 08:56:03;;;;;;;;;;;;;;;;;;5154298;27;20370;-41
2023/12/31 08:58:29;;;;;;;;;;;;;;;;;;5154358;27;19970;-40
2023/12/31 09:00:56;;;;;;;;;;;;;;;;;;5154318;27;19994;-40
2023/12/31 09:03:22;;;;;;;;;;;;;;;;;;5154435;27;19923;-39
2023/12/31 09:05:48;;;;;;;;;;;;;;;;;;5153998;27;20278;-39
2023/12/31 09:08:13;;;;;;;;;;;;;;;;;;5154056;27;19945;-41
2023/12/31 09:10:38;;;;;;;;;;;;;;;;;;5153741;27;20026;-40
2023/12/31 09:13:04;;;;;;;;;;;;;;;;;;5153871;27;20007;-39
2023/12/31 09:15:30;;;;;;;;;;;;;;;;;;5153968;27;19998;-42
2023/12/31 09:17:55;;;;;;;;;;;;;;;;;;5153690;27;19927;-39
2023/12/31 09:20:21;;;;;;;;;;;;;;;;;;5154247;27;20434;-42
2023/12/31 09:22:47;;;;;;;;;;;;;;;;;;5154459;27;19959;-41
2023/12/31 09:25:15;;;;;;;;;;;;;;;;;;5154332;27;20139;-41
2023/12/31 09:27:40;;;;;;;;;;;;;;;;;;5154354;27;20259;-40
2023/12/31 09:30:06;;;;;;;;;;;;;;;;;;5154044;27;19926;-40
2023/12/31 09:32:32;;;;;;;;;;;;;;;;;;5154226;27;20019;-40
2023/12/31 09:34:58;;;;;;;;;;;;;;;;;;5154204;27;20358;-41
2023/12/31 09:37:24;;;;;;;;;;;;;;;;;;5153704;27;19958;-39
2023/12/31 09:39:49;;;;;;;;;;;;;;;;;;5153818;27;19930;-40
2023/12/31 09:42:15;;;;;;;;;;;;;;;;;;5153981;27;20334;-39
2023/12/31 09:44:40;;;;;;;;;;;;;;;;;;5153934;27;19927;-40
2023/12/31 09:47:06;;;;;;;;;;;;;;;;;;5153474;27;19966;-41
2023/12/31 09:49:35;;;;;;;;;;;;;;;;;;5154011;27;19930;-41
2023/12/31 09:52:01;;;;;;;;;;;;;;;;;;5153712;27;20010;-40
2023/12/31 09:54:26;;;;;;;;;;;;;;;;;;5153955;27;19962;-39
2023/12/31 09:56:52;;;;;;;;;;;;;;;;;;5154064;27;19927;-39
2023/12/31 09:59:17;;;;;;;;;;;;;;;;;;5153992;27;20337;-39
2023/12/31 10:01:43;;;;;;;;;;;;;;;;;;5153847;27;19958;-40
2023/12/31 10:04:08;;;;;;;;;;;;;;;;;;5154173;27;20285;-39
2023/12/31 10:06:37;;;;;;;;;;;;;;;;;;5157480;27;20327;-39
2023/12/31 10:09:03;;;;;;;;;;;;;;;;;;5157621;27;20339;-39
2023/12/31 10:11:28;;;;;;;;;;;;;;;;;;5156436;27;20334;-40
2023/12/31 10:13:54;;;;;;;;;;;;;;;;;;5156863;27;19949;-39
2023/12/31 10:16:19;;;;;;;;;;;;;;;;;;5156696;27;20005;-39
2023/12/31 10:18:45;;;;;;;;;;;;;;;;;;5157123;27;19930;-42
2023/12/31 10:21:12;;;;;;;;;;;;;;;;;;5157056;27;20377;-39
2023/12/31 10:23:37;;;;;;;;;;;;;;;;;;5157257;27;19923;-39
2023/12/31 10:26:03;;;;;;;;;;;;;;;;;;5157039;27;19969;-39
2023/12/31 10:28:28;;;;;;;;;;;;;;;;;;5156895;27;19962;-40
2023/12/31 10:30:54;;;;;;;;;;;;;;;;;;5157170;27;20320;-41
2023/12/31 10:33:19;;;;;;;;;;;;;;;;;;5156709;27;19950;-41
2023/12/31 10:35:46;;;;;;;;;;;;;;;;;;5157084;27;19923;-40
2023/12/31 10:38:12;;;;;;;;;;;;;;;;;;5156687;27;19923;-39
2023/12/31 10:40:37;;;;;;;;;;;;;;;;;;5156848;27;20009;-39
2023/12/31 10:43:03;;;;;;;;;;;;;;;;;;5156152;27;19968;-41
2023/12/31 10:45:30;;;;;;;;;;;;;;;;;;5156630;27;20346;-40
2023/12/31 10:47:56;;;;;;;;;;;;;;;;;;5156756;27;19975;-40
2023/12/31 10:50:22;;;;;;;;;;;;;;;;;;5156799;27;19923;-40
2023/12/31 10:52:48;;;;;;;;;;;;;;;;;;5156762;27;19927;-40
2023/12/31 10:55:14;;;;;;;;;;;;;;;;;;5156836;27;20389;-40
2023/12/31 10:57:40;;;;;;;;;;;;;;;;;;5156796;27;19923;-41
2023/12/31 11:00:05;;;;;;;;;;;;;;;;;;5156814;27;19963;-40
2023/12/31 11:02:31;;;;;;;;;;;;;;;;;;5156685;27;19923;-39
2023/12/31 11:04:56;;;;;;;;;;;;;;;;;;5156738;27;19934;-39
2023/12/31 11:07:22;;;;;;;;;;;;;;;;;;5156680;27;20007;-41
2023/12/31 11:09:48;;;;;;;;;;;;;;;;;;5156431;27;19923;-41
2023/12/31 11:12:14;;;;;;;;;;;;;;;;;;5156383;27;19929;-39
2023/12/31 11:14:39;;;;;;;;;;;;;;;;;;5156277;27;20489;-41
2023/12/31 11:17:04;;;;;;;;;;;;;;;;;;5155440;27;20002;-44
2023/12/31 11:19:30;;;;;;;;;;;;;;;;;;5156377;27;19973;-39
2023/12/31 11:21:55;;;;;;;;;;;;;;;;;;5156443;27;20040;-40
2023/12/31 11:24:21;;;;;;;;;;;;;;;;;;5156254;27;20339;-40
2023/12/31 11:26:46;;;;;;;;;;;;;;;;;;5156131;27;19927;-40
2023/12/31 11:29:12;;;;;;;;;;;;;;;;;;5156239;27;20063;-40
2023/12/31 11:31:37;;;;;;;;;;;;;;;;;;5156136;27;19940;-42
2023/12/31 11:34:04;;;;;;;;;;;;;;;;;;5156139;27;19923;-41
2023/12/31 11:36:31;;;;;;;;;;;;;;;;;;5155980;27;19923;-40
2023/12/31 11:38:56;;;;;;;;;;;;;;;;;;5155459;27;20189;-44
2023/12/31 11:41:22;;;;;;;;;;;;;;;;;;5155760;27;20012;-41
2023/12/31 11:43:48;;;;;;;;;;;;;;;;;;5155035;27;19955;-41
2023/12/31 11:46:14;;;;;;;;;;;;;;;;;;5154619;27;19927;-39
2023/12/31 11:48:40;;;;;;;;;;;;;;;;;;5155821;27;19969;-40
2023/12/31 11:51:05;;;;;;;;;;;;;;;;;;5155814;27;19923;-41
2023/12/31 11:53:31;;;;;;;;;;;;;;;;;;5155726;27;19965;-39
2023/12/31 11:55:56;;;;;;;;;;;;;;;;;;5155904;27;19927;-40
2023/12/31 11:58:22;;;;;;;;;;;;;;;;;;5155859;27;19962;-40
2023/12/31 12:00:49;;;;;;;;;;;;;;;;;;5155835;27;19926;-41
2023/12/31 12:03:15;;;;;;;;;;;;;;;;;;5155715;27;20371;-39
2023/12/31 12:05:40;;;;;;;;;;;;;;;;;;5155135;27;19927;-39
2023/12/31 12:08:07;;;;;;;;;;;;;;;;;;5155270;27;20013;-41
2023/12/31 12:10:33;;;;;;;;;;;;;;;;;;5155007;27;19923;-40
2023/12/31 12:12:58;;;;;;;;;;;;;;;;;;5154959;27;20010;-40
2023/12/31 12:15:26;;;;;;;;;;;;;;;;;;5154555;27;20419;-41
2023/12/31 12:17:51;;;;;;;;;;;;;;;;;;5155172;27;19998;-40
2023/12/31 12:20:17;;;;;;;;;;;;;;;;;;5154793;27;20297;-41
2023/12/31 12:22:42;;;;;;;;;;;;;;;;;;5154959;27;20386;-40
2023/12/31 12:25:08;;;;;;;;;;;;;;;;;;5155389;27;20274;-41
2023/12/31 12:27:33;;;;;;;;;;;;;;;;;;5154137;27;19985;-40
2023/12/31 12:29:59;;;;;;;;;;;;;;;;;;5154919;27;20005;-40
2023/12/31 12:32:24;;;;;;;;;;;;;;;;;;5155294;27;19962;-41
2023/12/31 12:34:50;;;;;;;;;;;;;;;;;;5155214;27;20007;-39
2023/12/31 12:37:15;;;;;;;;;;;;;;;;;;5154711;27;20354;-40
2023/12/31 12:39:41;;;;;;;;;;;;;;;;;;5154536;27;19924;-40
2023/12/31 12:42:06;;;;;;;;;;;;;;;;;;5154573;27;19949;-40
2023/12/31 12:44:31;;;;;;;;;;;;;;;;;;5155025;27;20431;-39
2023/12/31 12:46:57;;;;;;;;;;;;;;;;;;5154087;27;20020;-41
2023/12/31 12:49:22;;;;;;;;;;;;;;;;;;5154766;27;19966;-41
2023/12/31 12:51:48;;;;;;;;;;;;;;;;;;5154727;27;19958;-40
2023/12/31 12:54:14;;;;;;;;;;;;;;;;;;5154780;27;20001;-41
2023/12/31 12:56:39;;;;;;;;;;;;;;;;;;5154862;27;19927;-40
2023/12/31 12:59:05;;;;;;;;;;;;;;;;;;5154831;27;19972;-40
2023/12/31 13:01:30;;;;;;;;;;;;;;;;;;5154681;27;19960;-40
2023/12/31 13:03:56;;;;;;;;;;;;;;;;;;5154433;27;20418;-38
2023/12/31 13:06:21;;;;;;;;;;;;;;;;;;5154699;27;19973;-41
2023/12/31 13:08:47;;;;;;;;;;;;;;;;;;5154665;27;19927;-39
2023/12/31 13:11:12;;;;;;;;;;;;;;;;;;5154525;27;20334;-39
2023/12/31 13:13:38;;;;;;;;;;;;;;;;;;5154623;27;19923;-40
2023/12/31 13:16:03;;;;;;;;;;;;;;;;;;5154248;27;20333;-39
2023/12/31 13:18:34;;;;;;;;;;;;;;;;;;5154389;27;20367;-39
2023/12/31 13:21:00;;;;;;;;;;;;;;;;;;5154470;27;19934;-42
2023/12/31 13:23:25;;;;;;;;;;;;;;;;;;5154221;27;19962;-41
2023/12/31 13:25:51;;;;;;;;;;;;;;;;;;5154428;27;20421;-40
2023/12/31 13:28:17;;;;;;;;;;;;;;;;;;5154070;27;19937;-42
2023/12/31 13:30:42;;;;;;;;;;;;;;;;;;5154378;27;19935;-39
2023/12/31 13:33:08;;;;;;;;;;;;;;;;;;5154213;27;19946;-42
2023/12/31 13:35:34;;;;;;;;;;;;;;;;;;5154320;27;19962;-42
2023/12/31 13:37:59;;;;;;;;;;;;;;;;;;5153938;27;19934;-39
2023/12/31 13:40:25;;;;;;;;;;;;;;;;;;5153418;27;19932;-42
2023/12/31 13:42:52;;;;;;;;;;;;;;;;;;5153926;27;19962;-41
2023/12/31 13:45:18;;;;;;;;;;;;;;;;;;5153794;27;19931;-39
2023/12/31 13:47:43;;;;;;;;;;;;;;;;;;5153407;27;19979;-40
2023/12/31 13:50:10;;;;;;;;;;;;;;;;;;5132127;28;21099;-42
2023/12/31 13:52:36;;;;;;;;;;;;;;;;;;5133159;28;19924;-39
2023/12/31 13:55:01;;;;;;;;;;;;;;;;;;5133074;28;20016;-41
2023/12/31 13:57:27;;;;;;;;;;;;;;;;;;5133280;28;20416;-40
2023/12/31 13:59:52;;;;;;;;;;;;;;;;;;5133358;28;20015;-42
2023/12/31 14:02:18;;;;;;;;;;;;;;;;;;5132885;28;20023;-40
2023/12/31 14:04:44;;;;;;;;;;;;;;;;;;5132906;28;20426;-39
2023/12/31 14:07:10;;;;;;;;;;;;;;;;;;5133224;27;20300;-38
2023/12/31 14:09:38;;;;;;;;;;;;;;;;;;5132844;28;20402;-41
2023/12/31 14:12:04;;;;;;;;;;;;;;;;;;5133193;27;19945;-40
2023/12/31 14:14:29;;;;;;;;;;;;;;;;;;5132917;28;19963;-40
2023/12/31 14:16:54;;;;;;;;;;;;;;;;;;5132372;28;19983;-41
2023/12/31 14:19:20;;;;;;;;;;;;;;;;;;5132635;28;20060;-39
2023/12/31 14:21:52;;;;;;;;;;;;;;;;;;5132996;28;20367;-39
2023/12/31 14:24:17;;;;;;;;;;;;;;;;;;5132624;28;19967;-41
2023/12/31 14:26:42;;;;;;;;;;;;;;;;;;5132822;28;20510;-41
2023/12/31 14:29:08;;;;;;;;;;;;;;;;;;5132496;28;20357;-39
2023/12/31 14:31:34;;;;;;;;;;;;;;;;;;5132883;28;19923;-41
2023/12/31 14:33:59;;;;;;;;;;;;;;;;;;5132697;27;20274;-42
2023/12/31 14:36:31;;;;;;;;;;;;;;;;;;5132820;27;20007;-41
2023/12/31 14:38:56;;;;;;;;;;;;;;;;;;5132851;28;19927;-41
2023/12/31 14:41:22;;;;;;;;;;;;;;;;;;5132077;28;20002;-41
2023/12/31 14:43:47;;;;;;;;;;;;;;;;;;5132687;28;19927;-40
2023/12/31 14:46:13;;;;;;;;;;;;;;;;;;5131345;28;20454;-39
2023/12/31 14:48:38;;;;;;;;;;;;;;;;;;5131212;28;20011;-39
2023/12/31 14:51:04;;;;;;;;;;;;;;;;;;5132259;27;19923;-41
2023/12/31 14:53:29;;;;;;;;;;;;;;;;;;5135232;28;19973;-40
2023/12/31 14:55:55;;;;;;;;;;;;;;;;;;5135527;28;20010;-41
2023/12/31 14:58:21;;;;;;;;;;;;;;;;;;5136123;28;19923;-41
2023/12/31 15:00:48;;;;;;;;;;;;;;;;;;5135511;27;19930;-41
2023/12/31 15:03:14;;;;;;;;;;;;;;;;;;5135974;28;19963;-40
2023/12/31 15:05:39;;;;;;;;;;;;;;;;;;5136211;28;19923;-42
2023/12/31 15:08:05;;;;;;;;;;;;;;;;;;5135330;28;19924;-41
2023/12/31 15:10:31;;;;;;;;;;;;;;;;;;5135189;28;19968;-40
2023/12/31 15:12:58;;;;;;;;;;;;;;;;;;5134993;28;19931;-39
2023/12/31 15:15:23;;;;;;;;;;;;;;;;;;5134932;27;19927;-40
2023/12/31 15:17:49;;;;;;;;;;;;;;;;;;5135166;28;19938;-40
2023/12/31 15:20:16;;;;;;;;;;;;;;;;;;5134697;28;19962;-39
2023/12/31 15:22:41;;;;;;;;;;;;;;;;;;5135155;27;19923;-40
2023/12/31 15:25:07;;;;;;;;;;;;;;;;;;5134919;28;19978;-41
2023/12/31 15:27:33;;;;;;;;;;;;;;;;;;5135076;28;20371;-41
2023/12/31 15:29:58;;;;;;;;;;;;;;;;;;5134735;27;20021;-42
2023/12/31 15:32:24;;;;;;;;;;;;;;;;;;5135115;28;20015;-40
2023/12/31 15:34:49;;;;;;;;;;;;;;;;;;5134936;27;19947;-41
2023/12/31 15:37:15;;;;;;;;;;;;;;;;;;5135354;28;19972;-40
2023/12/31 15:39:41;;;;;;;;;;;;;;;;;;5135277;27;20370;-42
2023/12/31 15:42:06;;;;;;;;;;;;;;;;;;5134996;27;19924;-40
2023/12/31 15:44:32;;;;;;;;;;;;;;;;;;5135360;28;19930;-40
2023/12/31 15:46:58;;;;;;;;;;;;;;;;;;5134965;28;20026;-39
2023/12/31 15:49:23;;;;;;;;;;;;;;;;;;5135034;28;19923;-42
2023/12/31 15:51:49;;;;;;;;;;;;;;;;;;5135113;28;19923;-38
2023/12/31 15:54:14;;;;;;;;;;;;;;;;;;5134713;28;20002;-40
2023/12/31 15:56:40;;;;;;;;;;;;;;;;;;5135135;28;19963;-41
2023/12/31 15:59:05;;;;;;;;;;;;;;;;;;5135119;28;19955;-40
2023/12/31 16:01:30;;;;;;;;;;;;;;;;;;5135022;27;19930;-41
2023/12/31 16:03:56;;;;;;;;;;;;;;;;;;5134958;28;19942;-39
2023/12/31 16:06:22;;;;;;;;;;;;;;;;;;5134989;28;20011;-41
2023/12/31 16:08:47;;;;;;;;;;;;;;;;;;5134291;28;20026;-41
2023/12/31 16:11:15;;;;;;;;;;;;;;;;;;5134841;28;20011;-40
2023/12/31 16:13:41;;;;;;;;;;;;;;;;;;5134300;28;20358;-39
2023/12/31 16:16:06;;;;;;;;;;;;;;;;;;5134404;28;20007;-40
2023/12/31 16:18:33;;;;;;;;;;;;;;;;;;5134603;28;19972;-39
2023/12/31 16:20:59;;;;;;;;;;;;;;;;;;5134489;28;19928;-42
2023/12/31 16:23:24;;;;;;;;;;;;;;;;;;5134412;28;20015;-39
2023/12/31 16:25:50;;;;;;;;;;;;;;;;;;5134607;28;20347;-39
2023/12/31 16:28:15;;;;;;;;;;;;;;;;;;5134553;28;20052;-38
2023/12/31 16:30:41;;;;;;;;;;;;;;;;;;5134320;28;19966;-40
2023/12/31 16:33:07;;;;;;;;;;;;;;;;;;5134643;28;19923;-39
2023/12/31 16:35:32;;;;;;;;;;;;;;;;;;5134385;27;19923;-39